createdAt,value
2018-04-13T00:00:10.221Z,922.33
2018-04-13T00:01:10.220Z,922.29
2018-04-13T00:02:10.219Z,922.25
2018-04-13T00:03:10.225Z,922.24
2018-04-13T00:04:10.219Z,922.25
2018-04-13T00:05:10.219Z,922.27
2018-04-13T00:06:10.220Z,922.25
2018-04-13T00:07:10.219Z,922.29
2018-04-13T00:08:10.220Z,922.27
2018-04-13T00:09:10.220Z,922.31
2018-04-13T00:10:10.219Z,922.30
2018-04-13T00:11:10.220Z,922.34
2018-04-13T00:12:10.218Z,922.32
2018-04-13T00:13:10.222Z,922.30
2018-04-13T00:14:10.217Z,922.33
2018-04-13T00:15:10.219Z,922.29
2018-04-13T00:16:10.218Z,922.28
2018-04-13T00:17:10.219Z,922.28
2018-04-13T00:18:10.220Z,922.27
2018-04-13T00:19:10.218Z,922.31
2018-04-13T00:20:10.218Z,922.30
2018-04-13T00:21:10.221Z,922.34
2018-04-13T00:22:10.218Z,922.38
2018-04-13T00:23:10.218Z,922.38
2018-04-13T00:24:10.218Z,922.35
2018-04-13T00:25:10.218Z,922.36
2018-04-13T00:26:10.217Z,922.33
2018-04-13T00:27:10.218Z,922.39
2018-04-13T00:28:10.219Z,922.39
2018-04-13T00:29:10.222Z,922.38
2018-04-13T00:30:10.219Z,922.35
2018-04-13T00:31:10.218Z,922.36
2018-04-13T00:32:10.217Z,922.35
2018-04-13T00:34:10.218Z,922.31
2018-04-13T00:35:10.217Z,922.35
2018-04-13T00:36:10.218Z,922.36
2018-04-13T00:37:10.222Z,922.34
2018-04-13T00:38:10.218Z,922.32
2018-04-13T00:39:10.218Z,922.33
2018-04-13T00:40:10.221Z,922.29
2018-04-13T00:41:10.222Z,922.32
2018-04-13T00:42:10.221Z,922.35
2018-04-13T00:43:10.218Z,922.37
2018-04-13T00:44:10.219Z,922.41
2018-04-13T00:45:10.219Z,922.35
2018-04-13T00:46:10.218Z,922.36
2018-04-13T00:47:10.217Z,922.43
2018-04-13T00:48:10.218Z,922.45
2018-04-13T00:49:10.218Z,922.44
2018-04-13T00:50:10.219Z,922.46
2018-04-13T00:51:10.217Z,922.44
2018-04-13T00:52:10.220Z,922.43
2018-04-13T00:53:10.219Z,922.47
2018-04-13T00:54:10.215Z,922.49
2018-04-13T00:55:10.218Z,922.50
2018-04-13T00:56:10.217Z,922.48
2018-04-13T00:57:10.218Z,922.49
2018-04-13T00:58:10.216Z,922.50
2018-04-13T00:59:10.216Z,922.48
2018-04-13T01:00:10.218Z,922.47
2018-04-13T01:01:10.217Z,922.49
2018-04-13T01:02:10.216Z,922.49
2018-04-13T01:03:10.216Z,922.50
2018-04-13T01:04:10.216Z,922.51
2018-04-13T01:05:10.215Z,922.47
2018-04-13T01:06:10.216Z,922.48
2018-04-13T01:07:10.216Z,922.53
2018-04-13T01:08:10.216Z,922.49
2018-04-13T01:09:10.216Z,922.52
2018-04-13T01:10:10.216Z,922.54
2018-04-13T01:11:10.216Z,922.53
2018-04-13T01:12:10.217Z,922.51
2018-04-13T01:13:10.215Z,922.49
2018-04-13T01:14:10.216Z,922.49
2018-04-13T01:15:10.216Z,922.47
2018-04-13T01:16:10.221Z,922.49
2018-04-13T01:17:10.216Z,922.46
2018-04-13T01:18:10.215Z,922.48
2018-04-13T01:19:10.216Z,922.49
2018-04-13T01:20:10.215Z,922.50
2018-04-13T01:21:10.216Z,922.45
2018-04-13T01:22:10.215Z,922.44
2018-04-13T01:23:10.214Z,922.51
2018-04-13T01:24:10.220Z,922.45
2018-04-13T01:25:10.215Z,922.48
2018-04-13T01:26:10.216Z,922.44
2018-04-13T01:27:10.214Z,922.48
2018-04-13T01:28:10.218Z,922.47
2018-04-13T01:29:10.215Z,922.50
2018-04-13T01:30:10.214Z,922.54
2018-04-13T01:31:10.215Z,922.53
2018-04-13T01:32:10.218Z,922.54
2018-04-13T01:33:10.215Z,922.57
2018-04-13T01:34:10.213Z,922.57
2018-04-13T01:35:10.214Z,922.56
2018-04-13T01:36:10.213Z,922.54
2018-04-13T01:37:10.214Z,922.60
2018-04-13T01:38:10.213Z,922.62
2018-04-13T01:39:10.220Z,922.62
2018-04-13T01:40:10.214Z,922.64
2018-04-13T01:41:10.213Z,922.69
2018-04-13T01:42:10.212Z,922.71
2018-04-13T01:43:10.212Z,922.76
2018-04-13T01:44:10.212Z,922.76
2018-04-13T01:45:10.212Z,922.82
2018-04-13T01:46:10.212Z,922.82
2018-04-13T01:47:10.211Z,922.88
2018-04-13T01:48:10.211Z,922.90
2018-04-13T01:49:10.213Z,922.95
2018-04-13T01:50:10.209Z,922.94
2018-04-13T01:51:10.210Z,922.94
2018-04-13T01:52:10.212Z,922.95
2018-04-13T01:53:10.210Z,922.90
2018-04-13T01:54:10.211Z,922.86
2018-04-13T01:55:10.209Z,922.84
2018-04-13T01:56:10.208Z,922.80
2018-04-13T01:57:10.209Z,922.77
2018-04-13T01:58:10.208Z,922.75
2018-04-13T01:59:10.207Z,922.78
2018-04-13T02:00:10.209Z,922.76
2018-04-13T02:01:10.208Z,922.81
2018-04-13T02:02:10.207Z,922.87
2018-04-13T02:03:10.208Z,922.87
2018-04-13T02:04:10.205Z,922.91
2018-04-13T02:05:10.206Z,922.89
2018-04-13T02:06:10.205Z,922.92
2018-04-13T02:07:10.205Z,922.96
2018-04-13T02:08:10.206Z,922.95
2018-04-13T02:09:10.205Z,922.96
2018-04-13T02:10:10.203Z,922.96
2018-04-13T02:11:10.203Z,922.95
2018-04-13T02:12:10.204Z,922.97
2018-04-13T02:13:10.202Z,923.00
2018-04-13T02:14:10.201Z,922.99
2018-04-13T02:15:10.203Z,922.98
2018-04-13T02:16:10.202Z,922.97
2018-04-13T02:17:10.202Z,923.01
2018-04-13T02:18:10.202Z,923.01
2018-04-13T02:19:10.200Z,923.01
2018-04-13T02:20:10.200Z,923.00
2018-04-13T02:21:10.200Z,923.03
2018-04-13T02:22:10.198Z,923.00
2018-04-13T02:23:10.202Z,923.01
2018-04-13T02:24:10.198Z,923.01
2018-04-13T02:25:10.199Z,923.06
2018-04-13T02:26:10.196Z,923.07
2018-04-13T02:27:10.196Z,923.11
2018-04-13T02:28:10.195Z,923.12
2018-04-13T02:29:10.195Z,923.10
2018-04-13T02:30:10.193Z,923.13
2018-04-13T02:31:10.193Z,923.12
2018-04-13T02:32:10.193Z,923.14
2018-04-13T02:33:10.193Z,923.17
2018-04-13T02:34:10.190Z,923.15
2018-04-13T02:35:10.189Z,923.17
2018-04-13T02:36:10.189Z,923.15
2018-04-13T02:37:10.189Z,923.17
2018-04-13T02:38:10.188Z,923.15
2018-04-13T02:39:10.187Z,923.16
2018-04-13T02:40:10.187Z,923.18
2018-04-13T02:41:10.186Z,923.16
2018-04-13T02:42:10.184Z,923.16
2018-04-13T02:43:10.185Z,923.20
2018-04-13T02:44:10.187Z,923.20
2018-04-13T02:45:10.183Z,923.22
2018-04-13T02:46:10.183Z,923.26
2018-04-13T02:47:10.180Z,923.26
2018-04-13T02:48:10.181Z,923.27
2018-04-13T02:49:10.179Z,923.27
2018-04-13T02:50:10.177Z,923.33
2018-04-13T02:51:10.178Z,923.31
2018-04-13T02:52:10.179Z,923.35
2018-04-13T02:53:10.177Z,923.36
2018-04-13T02:54:10.175Z,923.42
2018-04-13T02:55:10.174Z,923.41
2018-04-13T02:56:10.173Z,923.44
2018-04-13T02:57:10.172Z,923.48
2018-04-13T02:58:10.176Z,923.50
2018-04-13T02:59:10.171Z,923.50
2018-04-13T03:00:10.170Z,923.50
2018-04-13T03:01:10.171Z,923.51
2018-04-13T03:02:10.169Z,923.49
2018-04-13T03:03:10.168Z,923.50
2018-04-13T03:04:10.168Z,923.52
2018-04-13T03:05:10.166Z,923.51
2018-04-13T03:06:10.166Z,923.52
2018-04-13T03:07:10.164Z,923.51
2018-04-13T03:08:10.163Z,923.51
2018-04-13T03:09:10.163Z,923.49
2018-04-13T03:10:10.163Z,923.53
2018-04-13T03:11:10.161Z,923.51
2018-04-13T03:12:10.162Z,923.52
2018-04-13T03:13:10.163Z,923.50
2018-04-13T03:14:10.161Z,923.50
2018-04-13T03:15:10.163Z,923.47
2018-04-13T03:16:10.160Z,923.51
2018-04-13T03:17:10.161Z,923.51
2018-04-13T03:18:10.159Z,923.50
2018-04-13T03:19:10.158Z,923.53
2018-04-13T03:20:10.158Z,923.52
2018-04-13T03:21:10.161Z,923.55
2018-04-13T03:22:10.156Z,923.54
2018-04-13T03:23:10.156Z,923.57
2018-04-13T03:24:10.155Z,923.57
2018-04-13T03:25:10.155Z,923.61
2018-04-13T03:26:10.155Z,923.62
2018-04-13T03:27:10.153Z,923.67
2018-04-13T03:28:10.152Z,923.64
2018-04-13T03:29:10.153Z,923.64
2018-04-13T03:30:10.150Z,923.69
2018-04-13T03:31:10.154Z,923.72
2018-04-13T03:32:10.150Z,923.75
2018-04-13T03:33:10.151Z,923.76
2018-04-13T03:34:10.148Z,923.77
2018-04-13T03:35:10.148Z,923.79
2018-04-13T03:36:10.148Z,923.81
2018-04-13T03:37:10.147Z,923.81
2018-04-13T03:38:10.146Z,923.83
2018-04-13T03:39:10.145Z,923.82
2018-04-13T03:40:10.146Z,923.83
2018-04-13T03:41:10.144Z,923.84
2018-04-13T03:42:10.170Z,923.84
2018-04-13T03:43:10.142Z,923.79
2018-04-13T03:44:10.143Z,923.80
2018-04-13T03:45:10.142Z,923.81
2018-04-13T03:46:10.141Z,923.86
2018-04-13T03:47:10.161Z,923.86
2018-04-13T03:48:10.140Z,923.92
2018-04-13T03:49:10.141Z,923.90
2018-04-13T03:50:10.139Z,923.91
2018-04-13T03:51:10.138Z,923.93
2018-04-13T03:52:10.138Z,923.92
2018-04-13T03:53:10.138Z,923.91
2018-04-13T03:54:10.137Z,923.90
2018-04-13T03:55:10.137Z,923.95
2018-04-13T03:56:10.136Z,923.95
2018-04-13T03:57:10.135Z,923.95
2018-04-13T03:58:10.134Z,923.94
2018-04-13T03:59:10.133Z,923.93
2018-04-13T04:00:10.132Z,923.98
2018-04-13T04:01:10.133Z,923.95
2018-04-13T04:02:10.142Z,923.98
2018-04-13T04:03:10.131Z,923.97
2018-04-13T04:04:10.128Z,923.98
2018-04-13T04:05:10.128Z,924.01
2018-04-13T04:06:10.126Z,924.00
2018-04-13T04:07:10.129Z,923.99
2018-04-13T04:08:10.125Z,924.00
2018-04-13T04:09:10.124Z,924.03
2018-04-13T04:10:10.126Z,924.04
2018-04-13T04:11:10.121Z,924.06
2018-04-13T04:12:10.120Z,924.10
2018-04-13T04:13:10.120Z,924.06
2018-04-13T04:14:10.118Z,924.10
2018-04-13T04:15:10.117Z,924.11
2018-04-13T04:16:10.116Z,924.11
2018-04-13T04:17:10.116Z,924.18
2018-04-13T04:18:10.118Z,924.20
2018-04-13T04:19:10.113Z,924.20
2018-04-13T04:20:10.116Z,924.22
2018-04-13T04:21:10.112Z,924.27
2018-04-13T04:22:10.111Z,924.31
2018-04-13T04:23:10.109Z,924.34
2018-04-13T04:24:10.163Z,924.35
2018-04-13T04:25:10.110Z,924.35
2018-04-13T04:26:10.107Z,924.40
2018-04-13T04:27:10.106Z,924.43
2018-04-13T04:28:10.104Z,924.44
2018-04-13T04:29:10.105Z,924.43
2018-04-13T04:30:10.103Z,924.47
2018-04-13T04:31:10.102Z,924.51
2018-04-13T04:32:10.103Z,924.47
2018-04-13T04:33:10.101Z,924.54
2018-04-13T04:34:10.098Z,924.58
2018-04-13T04:35:10.100Z,924.60
2018-04-13T04:36:10.096Z,924.60
2018-04-13T04:37:10.097Z,924.61
2018-04-13T04:38:10.096Z,924.59
2018-04-13T04:39:10.095Z,924.64
2018-04-13T04:40:10.096Z,924.67
2018-04-13T04:41:10.094Z,924.66
2018-04-13T04:42:10.091Z,924.68
2018-04-13T04:43:10.091Z,924.74
2018-04-13T04:44:10.090Z,924.75
2018-04-13T04:45:10.089Z,924.77
2018-04-13T04:46:10.088Z,924.81
2018-04-13T04:47:10.088Z,924.81
2018-04-13T04:48:10.086Z,924.89
2018-04-13T04:49:10.084Z,924.85
2018-04-13T04:50:10.084Z,924.90
2018-04-13T04:51:10.084Z,924.89
2018-04-13T04:52:10.084Z,924.96
2018-04-13T04:53:10.084Z,924.96
2018-04-13T04:54:10.081Z,925.02
2018-04-13T04:55:10.080Z,925.10
2018-04-13T04:56:10.081Z,925.10
2018-04-13T04:57:10.081Z,925.11
2018-04-13T04:58:10.079Z,925.17
2018-04-13T04:59:10.078Z,925.14
2018-04-13T05:00:10.077Z,925.19
2018-04-13T05:01:10.077Z,925.22
2018-04-13T05:02:10.074Z,925.27
2018-04-13T05:03:10.075Z,925.24
2018-04-13T05:04:10.077Z,925.30
2018-04-13T05:05:10.074Z,925.34
2018-04-13T05:06:10.072Z,925.36
2018-04-13T05:07:10.073Z,925.44
2018-04-13T05:08:10.072Z,925.40
2018-04-13T05:09:10.071Z,925.46
2018-04-13T05:10:10.070Z,925.56
2018-04-13T05:11:10.068Z,925.59
2018-04-13T05:12:10.122Z,925.57
2018-04-13T05:13:10.068Z,925.66
2018-04-13T05:14:10.066Z,925.58
2018-04-13T05:15:10.065Z,925.55
2018-04-13T05:16:10.067Z,925.64
2018-04-13T05:17:10.065Z,925.63
2018-04-13T05:18:10.063Z,925.69
2018-04-13T05:19:10.064Z,925.71
2018-04-13T05:20:10.063Z,925.71
2018-04-13T05:21:10.063Z,925.76
2018-04-13T05:22:10.061Z,925.80
2018-04-13T05:23:10.061Z,925.82
2018-04-13T05:24:10.065Z,925.84
2018-04-13T05:25:10.058Z,925.79
2018-04-13T05:26:10.060Z,925.75
2018-04-13T05:27:10.057Z,925.77
2018-04-13T05:28:10.059Z,925.75
2018-04-13T05:29:10.058Z,925.79
2018-04-13T05:30:10.055Z,925.81
2018-04-13T05:31:10.080Z,925.82
2018-04-13T05:32:10.124Z,925.86
2018-04-13T05:33:10.107Z,925.86
2018-04-13T05:34:10.077Z,925.90
2018-04-13T05:35:10.116Z,925.92
2018-04-13T05:36:10.053Z,925.98
2018-04-13T05:37:10.053Z,925.99
2018-04-13T05:38:10.055Z,926.05
2018-04-13T05:39:10.053Z,926.05
2018-04-13T05:40:10.050Z,926.15
2018-04-13T05:41:10.053Z,926.11
2018-04-13T05:42:10.050Z,926.12
2018-04-13T05:43:10.051Z,926.11
2018-04-13T05:44:10.050Z,926.15
2018-04-13T05:45:10.053Z,926.21
2018-04-13T05:46:10.118Z,926.21
2018-04-13T05:47:10.047Z,926.20
2018-04-13T05:48:10.047Z,926.20
2018-04-13T05:49:10.048Z,926.25
2018-04-13T05:50:10.047Z,926.25
2018-04-13T05:51:10.054Z,926.26
2018-04-13T05:52:10.046Z,926.27
2018-04-13T05:53:10.046Z,926.33
2018-04-13T05:54:10.045Z,926.27
2018-04-13T05:55:10.044Z,926.34
2018-04-13T05:56:10.052Z,926.35
2018-04-13T05:57:10.044Z,926.37
2018-04-13T05:58:10.044Z,926.35
2018-04-13T05:59:10.043Z,926.36
2018-04-13T06:00:10.062Z,926.40
2018-04-13T06:01:10.042Z,926.41
2018-04-13T06:02:10.041Z,926.42
2018-04-13T06:03:10.044Z,926.44
2018-04-13T06:04:10.040Z,926.48
2018-04-13T06:05:10.070Z,926.50
2018-04-13T06:06:10.085Z,926.47
2018-04-13T06:07:10.071Z,926.51
2018-04-13T06:08:10.039Z,926.57
2018-04-13T06:09:10.037Z,926.53
2018-04-13T06:10:10.039Z,926.57
2018-04-13T06:11:10.036Z,926.56
2018-04-13T06:12:10.035Z,926.57
2018-04-13T06:13:10.037Z,926.53
2018-04-13T06:14:10.034Z,926.54
2018-04-13T06:15:10.034Z,926.56
2018-04-13T06:16:10.034Z,926.60
2018-04-13T06:17:10.038Z,926.55
2018-04-13T06:18:10.032Z,926.56
2018-04-13T06:19:10.443Z,926.64
2018-04-13T06:20:10.124Z,926.63
2018-04-13T06:21:10.030Z,926.61
2018-04-13T06:22:10.030Z,926.71
2018-04-13T06:23:10.029Z,926.68
2018-04-13T06:24:10.030Z,926.74
2018-04-13T06:25:10.030Z,926.70
2018-04-13T06:26:10.026Z,926.73
2018-04-13T06:27:10.027Z,926.70
2018-04-13T06:28:10.027Z,926.66
2018-04-13T06:29:10.026Z,926.70
2018-04-13T06:30:10.027Z,926.68
2018-04-13T06:31:10.025Z,926.67
2018-04-13T06:32:12.432Z,926.72
2018-04-13T06:33:10.024Z,926.61
2018-04-13T06:34:10.022Z,926.58
2018-04-13T06:35:10.133Z,926.57
2018-04-13T06:36:10.021Z,926.59
2018-04-13T06:37:10.025Z,926.59
2018-04-13T06:38:10.020Z,926.56
2018-04-13T06:39:10.020Z,926.50
2018-04-13T06:40:10.141Z,926.45
2018-04-13T06:41:10.021Z,926.37
2018-04-13T06:42:10.020Z,926.35
2018-04-13T06:43:10.016Z,926.36
2018-04-13T06:44:10.016Z,926.33
2018-04-13T06:45:10.015Z,926.39
2018-04-13T06:46:10.015Z,926.44
2018-04-13T06:47:10.012Z,926.53
2018-04-13T06:48:10.013Z,926.52
2018-04-13T06:49:10.015Z,926.54
2018-04-13T06:50:10.012Z,926.55
2018-04-13T06:51:10.010Z,926.53
2018-04-13T06:52:10.012Z,926.52
2018-04-13T06:53:10.011Z,926.51
2018-04-13T06:54:10.008Z,926.47
2018-04-13T06:55:10.008Z,926.45
2018-04-13T06:56:10.009Z,926.41
2018-04-13T06:57:10.008Z,926.40
2018-04-13T06:58:10.011Z,926.40
2018-04-13T06:59:10.014Z,926.33
2018-04-13T07:00:10.006Z,926.33
2018-04-13T07:01:10.041Z,926.27
2018-04-13T07:02:10.005Z,926.19
2018-04-13T07:03:10.005Z,926.17
2018-04-13T07:04:10.088Z,926.13
2018-04-13T07:05:10.004Z,926.15
2018-04-13T07:06:10.005Z,926.16
2018-04-13T07:07:10.003Z,926.15
2018-04-13T07:08:10.005Z,926.16
2018-04-13T07:09:10.008Z,926.09
2018-04-13T07:10:10.004Z,926.04
2018-04-13T07:11:10.004Z,926.05
2018-04-13T07:12:10.004Z,925.98
2018-04-13T07:13:10.005Z,925.94
2018-04-13T07:14:10.004Z,925.82
2018-04-13T07:15:10.011Z,925.77
2018-04-13T07:16:10.005Z,925.72
2018-04-13T07:17:10.005Z,925.69
2018-04-13T07:18:10.005Z,925.70
2018-04-13T07:19:10.010Z,925.75
2018-04-13T07:20:10.010Z,925.80
2018-04-13T07:21:10.008Z,925.86
2018-04-13T07:22:10.016Z,925.87
2018-04-13T07:23:10.009Z,925.86
2018-04-13T07:24:10.010Z,925.88
2018-04-13T07:25:10.008Z,925.87
2018-04-13T07:26:10.008Z,925.87
2018-04-13T07:27:10.008Z,925.94
2018-04-13T07:28:10.010Z,925.94
2018-04-13T07:29:10.010Z,925.90
2018-04-13T07:30:10.432Z,925.93
2018-04-13T07:31:10.011Z,925.96
2018-04-13T07:32:10.011Z,926.01
2018-04-13T07:33:10.026Z,926.13
2018-04-13T07:34:10.677Z,926.14
2018-04-13T07:35:10.425Z,926.18
2018-04-13T07:36:10.518Z,926.27
2018-04-13T07:37:10.016Z,926.31
2018-04-13T07:38:10.363Z,926.31
2018-04-13T07:39:10.016Z,926.33
2018-04-13T07:40:10.370Z,926.35
2018-04-13T07:41:10.020Z,926.37
2018-04-13T07:44:30.714Z,926.35
2018-04-13T07:45:30.718Z,926.37
2018-04-13T07:46:30.719Z,926.44
2018-04-13T07:47:30.718Z,926.42
2018-04-13T07:48:30.720Z,926.47
2018-04-13T07:49:30.934Z,926.50
2018-04-13T07:50:31.027Z,926.54
2018-04-13T07:51:30.904Z,926.49
2018-04-13T07:52:30.729Z,926.57
2018-04-13T07:53:30.735Z,926.62
2018-04-13T07:54:30.739Z,926.64
2018-04-13T07:55:31.159Z,926.65
2018-04-13T07:56:30.743Z,926.70
2018-04-13T07:57:30.749Z,926.78
2018-04-13T07:58:30.751Z,926.81
2018-04-13T07:59:30.757Z,926.82
2018-04-13T08:00:30.762Z,926.82
2018-04-13T08:01:30.772Z,926.78
2018-04-13T08:02:30.775Z,926.76
2018-04-13T08:03:30.779Z,926.78
2018-04-13T08:04:30.786Z,927.00
2018-04-13T08:05:30.795Z,927.10
2018-04-13T08:06:30.803Z,926.98
2018-04-13T08:07:30.810Z,927.06
2018-04-13T08:08:30.817Z,927.06
2018-04-13T08:09:30.827Z,927.10
2018-04-13T08:10:31.273Z,927.11
2018-04-13T08:11:31.128Z,927.13
2018-04-13T08:12:30.857Z,927.21
2018-04-13T08:13:30.865Z,927.22
2018-04-13T08:14:31.100Z,927.10
2018-04-13T08:15:31.176Z,927.08
2018-04-13T08:16:30.891Z,927.19
2018-04-13T08:17:30.902Z,927.11
2018-04-13T08:18:30.943Z,927.09
2018-04-13T08:19:30.984Z,927.09
2018-04-13T08:20:30.932Z,927.14
2018-04-13T08:21:30.939Z,927.17
2018-04-13T08:22:30.950Z,927.16
2018-04-13T08:23:30.968Z,927.26
2018-04-13T08:24:30.969Z,927.21
2018-04-13T08:25:30.976Z,927.21
2018-04-13T08:26:30.985Z,927.24
2018-04-13T08:27:30.994Z,927.32
2018-04-13T08:28:31.002Z,927.24
2018-04-13T08:29:31.009Z,927.29
2018-04-13T08:30:31.017Z,927.37
2018-04-13T08:31:31.026Z,927.36
2018-04-13T08:32:31.070Z,927.27
2018-04-13T08:33:31.041Z,927.35
2018-04-13T08:34:31.047Z,927.37
2018-04-13T08:35:31.135Z,927.37
2018-04-13T08:36:31.062Z,927.42
2018-04-13T08:37:31.069Z,927.39
2018-04-13T08:38:31.076Z,927.38
2018-04-13T08:39:31.104Z,927.46
2018-04-13T08:40:31.102Z,927.37
2018-04-13T08:41:31.099Z,927.52
2018-04-13T08:42:31.106Z,927.42
2018-04-13T08:43:31.123Z,927.45
2018-04-13T08:44:31.120Z,927.43
2018-04-13T08:45:31.128Z,927.44
2018-04-13T08:46:31.137Z,927.38
2018-04-13T08:47:31.149Z,927.37
2018-04-13T08:48:31.155Z,927.38
2018-04-13T08:49:31.161Z,927.45
2018-04-13T08:50:31.169Z,927.47
2018-04-13T08:51:31.176Z,927.47
2018-04-13T08:52:31.185Z,927.48
2018-04-13T08:53:31.193Z,927.46
2018-04-13T08:54:31.374Z,927.47
2018-04-13T08:55:31.221Z,927.47
2018-04-13T08:56:31.219Z,927.39
2018-04-13T08:57:31.224Z,927.45
2018-04-13T08:58:31.235Z,927.53
2018-04-13T08:59:31.240Z,927.51
2018-04-13T09:00:31.246Z,927.42
2018-04-13T09:01:31.252Z,927.46
2018-04-13T09:02:31.261Z,927.51
2018-04-13T09:03:31.267Z,927.46
2018-04-13T09:04:31.274Z,927.52
2018-04-13T09:05:31.282Z,927.49
2018-04-13T09:06:31.291Z,927.48
2018-04-13T09:07:31.294Z,927.45
2018-04-13T09:08:31.301Z,927.50
2018-04-13T09:09:31.305Z,927.55
2018-04-13T09:10:31.312Z,927.58
2018-04-13T09:11:31.319Z,927.54
2018-04-13T09:12:31.327Z,927.54
2018-04-13T09:13:31.329Z,927.58
2018-04-13T09:14:31.336Z,927.59
2018-04-13T09:15:31.350Z,927.55
2018-04-13T09:16:31.346Z,927.58
2018-04-13T09:17:31.352Z,927.64
2018-04-13T09:18:31.359Z,927.63
2018-04-13T09:19:31.368Z,927.61
2018-04-13T09:20:31.371Z,927.66
2018-04-13T09:21:31.377Z,927.65
2018-04-13T09:22:31.382Z,927.70
2018-04-13T09:23:31.387Z,927.70
2018-04-13T09:24:31.393Z,927.78
2018-04-13T09:25:31.398Z,927.74
2018-04-13T09:26:31.404Z,927.76
2018-04-13T09:27:31.410Z,927.79
2018-04-13T09:28:31.416Z,927.78
2018-04-13T09:29:31.422Z,927.77
2018-04-13T09:30:31.429Z,927.81
2018-04-13T09:31:31.434Z,927.79
2018-04-13T09:32:31.440Z,927.78
2018-04-13T09:33:31.445Z,927.84
2018-04-13T09:34:31.456Z,927.86
2018-04-13T09:35:31.488Z,927.86
2018-04-13T09:36:31.469Z,927.88
2018-04-13T09:37:31.495Z,927.88
2018-04-13T09:38:31.478Z,927.91
2018-04-13T09:39:31.487Z,927.94
2018-04-13T09:40:31.492Z,927.94
2018-04-13T09:41:31.498Z,927.92
2018-04-13T09:42:31.504Z,927.94
2018-04-13T09:43:31.510Z,927.92
2018-04-13T09:44:31.514Z,927.95
2018-04-13T09:45:31.523Z,927.90
2018-04-13T09:46:31.533Z,927.87
2018-04-13T09:47:31.535Z,927.96
2018-04-13T09:48:31.540Z,927.95
2018-04-13T09:49:31.548Z,927.95
2018-04-13T09:50:31.554Z,927.99
2018-04-13T09:51:31.562Z,928.01
2018-04-13T09:52:31.564Z,927.94
2018-04-13T09:53:31.572Z,927.93
2018-04-13T09:54:31.579Z,927.94
2018-04-13T09:55:31.583Z,927.92
2018-04-13T09:56:31.594Z,927.92
2018-04-13T09:57:31.596Z,927.95
2018-04-13T09:58:31.674Z,927.96
2018-04-13T09:59:31.637Z,927.98
2018-04-13T10:00:31.614Z,928.00
2018-04-13T10:01:31.619Z,928.01
2018-04-13T10:02:31.626Z,928.04
2018-04-13T10:03:31.630Z,928.03
2018-04-13T10:04:31.636Z,927.99
2018-04-13T10:05:31.640Z,928.03
2018-04-13T10:06:31.647Z,928.05
2018-04-13T10:07:31.655Z,928.07
2018-04-13T10:08:31.661Z,928.09
2018-04-13T10:09:31.663Z,928.11
2018-04-13T10:10:31.669Z,928.14
2018-04-13T10:11:31.673Z,928.16
2018-04-13T10:12:31.680Z,928.16
2018-04-13T10:13:31.685Z,928.14
2018-04-13T10:14:31.691Z,928.19
2018-04-13T10:15:31.694Z,928.20
2018-04-13T10:16:31.703Z,928.19
2018-04-13T10:17:31.706Z,928.21
2018-04-13T10:18:31.714Z,928.24
2018-04-13T10:19:31.717Z,928.25
2018-04-13T10:20:31.723Z,928.24
2018-04-13T10:21:31.727Z,928.24
2018-04-13T10:22:31.733Z,928.23
2018-04-13T10:23:31.738Z,928.22
2018-04-13T10:24:31.743Z,928.22
2018-04-13T10:25:31.754Z,928.22
2018-04-13T10:26:31.755Z,928.25
2018-04-13T10:27:31.759Z,928.24
2018-04-13T10:28:31.769Z,928.24
2018-04-13T10:29:31.771Z,928.25
2018-04-13T10:30:31.777Z,928.26
2018-04-13T10:31:31.785Z,928.29
2018-04-13T10:32:31.787Z,928.28
2018-04-13T10:33:31.792Z,928.28
2018-04-13T10:34:31.797Z,928.26
2018-04-13T10:35:31.828Z,928.26
2018-04-13T10:36:31.808Z,928.23
2018-04-13T10:37:31.812Z,928.24
2018-04-13T10:38:32.101Z,928.30
2018-04-13T10:39:31.823Z,928.29
2018-04-13T10:40:31.828Z,928.26
2018-04-13T10:41:31.953Z,928.32
2018-04-13T10:42:31.890Z,928.31
2018-04-13T10:43:31.970Z,928.27
2018-04-13T10:44:31.948Z,928.31
2018-04-13T10:45:31.986Z,928.32
2018-04-13T10:46:32.385Z,928.32
2018-04-13T10:47:31.962Z,928.28
2018-04-13T10:48:31.939Z,928.32
2018-04-13T10:49:31.886Z,928.32
2018-04-13T10:50:31.887Z,928.35
2018-04-13T10:51:31.895Z,928.44
2018-04-13T10:52:31.902Z,928.36
2018-04-13T10:53:31.910Z,928.41
2018-04-13T10:54:31.926Z,928.45
2018-04-13T10:55:31.922Z,928.48
2018-04-13T10:56:31.940Z,928.55
2018-04-13T10:57:31.939Z,928.60
2018-04-13T10:58:32.219Z,928.52
2018-04-13T10:59:31.955Z,928.54
2018-04-13T11:00:31.964Z,928.51
2018-04-13T11:01:31.972Z,928.61
2018-04-13T11:02:31.983Z,928.61
2018-04-13T11:03:31.990Z,928.65
2018-04-13T11:04:31.999Z,928.68
2018-04-13T11:05:32.435Z,928.64
2018-04-13T11:06:32.208Z,928.79
2018-04-13T11:07:32.030Z,928.74
2018-04-13T11:08:32.037Z,928.90
2018-04-13T11:09:32.048Z,928.94
2018-04-13T11:10:32.059Z,928.77
2018-04-13T11:11:32.068Z,928.81
2018-04-13T11:12:32.080Z,928.86
2018-04-13T11:13:32.090Z,928.87
2018-04-13T11:14:32.102Z,928.86
2018-04-13T11:15:32.116Z,928.85
2018-04-13T11:16:32.126Z,928.83
2018-04-13T11:17:32.136Z,928.55
2018-04-13T11:18:32.148Z,928.57
2018-04-13T11:19:32.487Z,928.69
2018-04-13T11:20:32.172Z,928.80
2018-04-13T11:21:32.182Z,928.79
2018-04-13T11:22:32.196Z,928.77
2018-04-13T11:23:32.205Z,928.71
2018-04-13T11:24:32.226Z,928.76
2018-04-13T11:25:32.229Z,928.68
2018-04-13T11:26:32.240Z,928.77
2018-04-13T11:27:32.437Z,928.74
2018-04-13T11:28:32.257Z,928.69
2018-04-13T11:29:32.591Z,928.75
2018-04-13T11:30:32.276Z,928.81
2018-04-13T11:31:32.283Z,928.87
2018-04-13T11:32:32.293Z,928.78
2018-04-13T11:33:32.396Z,928.76
2018-04-13T11:34:32.577Z,928.81
2018-04-13T11:35:32.319Z,928.76
2018-04-13T11:36:32.326Z,928.79
2018-04-13T11:37:32.334Z,928.70
2018-04-13T11:38:32.380Z,928.67
2018-04-13T11:39:32.349Z,928.67
2018-04-13T11:40:32.357Z,928.67
2018-04-13T11:41:32.419Z,928.70
2018-04-13T11:42:32.374Z,928.68
2018-04-13T11:43:32.577Z,928.69
2018-04-13T11:44:32.384Z,928.72
2018-04-13T11:45:32.391Z,928.71
2018-04-13T11:46:32.398Z,928.69
2018-04-13T11:47:32.404Z,928.70
2018-04-13T11:48:32.409Z,928.71
2018-04-13T11:49:32.452Z,928.80
2018-04-13T11:50:32.425Z,928.80
2018-04-13T11:51:32.428Z,928.81
2018-04-13T11:52:32.434Z,928.82
2018-04-13T11:53:32.504Z,928.87
2018-04-13T11:54:32.447Z,928.85
2018-04-13T11:55:32.453Z,928.89
2018-04-13T11:56:32.457Z,928.93
2018-04-13T11:57:32.463Z,928.89
2018-04-13T11:58:32.528Z,928.89
2018-04-13T11:59:32.731Z,928.84
2018-04-13T12:00:32.480Z,928.88
2018-04-13T12:01:32.486Z,928.95
2018-04-13T12:02:32.496Z,928.88
2018-04-13T12:03:32.721Z,928.90
2018-04-13T12:04:32.695Z,928.92
2018-04-13T12:05:32.831Z,928.96
2018-04-13T12:06:32.645Z,928.99
2018-04-13T12:07:32.825Z,928.96
2018-04-13T12:08:32.697Z,928.98
2018-04-13T12:09:32.599Z,929.01
2018-04-13T12:10:32.530Z,929.02
2018-04-13T12:11:32.535Z,929.00
2018-04-13T12:12:32.549Z,929.07
2018-04-13T12:13:32.574Z,929.08
2018-04-13T12:14:32.552Z,929.11
2018-04-13T12:15:32.555Z,929.12
2018-04-13T12:16:32.560Z,929.07
2018-04-13T12:17:32.841Z,929.11
2018-04-13T12:18:32.743Z,929.13
2018-04-13T12:19:33.044Z,929.01
2018-04-13T12:20:32.768Z,929.19
2018-04-13T12:21:32.624Z,929.19
2018-04-13T12:22:32.835Z,929.23
2018-04-13T12:23:32.708Z,929.24
2018-04-13T12:24:33.011Z,929.16
2018-04-13T12:25:32.887Z,929.18
2018-04-13T12:26:32.812Z,929.13
2018-04-13T12:27:32.881Z,929.23
2018-04-13T12:28:32.794Z,929.22
2018-04-13T12:29:32.638Z,929.26
2018-04-13T12:30:32.790Z,929.25
2018-04-13T12:31:32.766Z,929.16